Time;durP1;ratioP1;P1;durP2;ratioP2;P2;SDS_P1;SDS_P2;PMS_P1;PMS_P2;Temp;Humidity;BMP_temperature;BMP_pressure;BME280_temperature;BME280_humidity;BME280_pressure;Samples;Min_cycle;Max_cycle;Signal;HPM_P1;HPM_P2
2023/01/18 00:04:37;;;;;;;9.97;8.27;;;;;;;3.33;52.85;96773.09;10438492;28;20247;-39
2023/01/18 00:09:39;;;;;;;16.47;11.83;;;;;;;2.51;53.19;96778.00;10439221;28;20275;-37
2023/01/18 00:14:40;;;;;;;11.13;7.57;;;;;;;3.27;53.64;96737.72;10444505;28;20241;-41
2023/01/18 00:19:42;;;;;;;8.57;6.67;;;;;;;3.06;53.11;96754.69;10446272;28;20803;-41
2023/01/18 00:24:44;;;;;;;8.00;6.53;;;;;;;2.74;53.37;96782.81;10441011;28;20249;-40
2023/01/18 00:29:45;;;;;;;8.37;6.33;;;;;;;3.51;53.19;96764.41;10443539;28;20334;-41
2023/01/18 00:34:47;;;;;;;11.00;6.07;;;;;;;2.83;53.98;96805.34;10443599;28;20241;-40
2023/01/18 00:39:51;;;;;;;10.40;6.73;;;;;;;2.44;55.23;96825.50;10439302;28;20247;-38
2023/01/18 00:44:52;;;;;;;8.27;6.27;;;;;;;2.93;53.50;96767.16;10441780;28;20240;-41
2023/01/18 00:49:54;;;;;;;13.03;6.63;;;;;;;2.25;55.10;96828.94;10445238;28;20242;-39
2023/01/18 00:54:56;;;;;;;8.97;7.17;;;;;;;3.24;53.89;96748.72;10455210;28;20237;-38
2023/01/18 00:59:57;;;;;;;8.37;6.17;;;;;;;3.04;53.82;96777.88;10446748;28;20237;-37
2023/01/18 01:10:20;;;;;;;10.60;6.83;;;;;;;2.05;54.47;96828.97;10443017;28;20238;-39
2023/01/18 01:26:07;;;;;;;8.87;6.43;;;;;;;1.30;56.45;96877.16;10444436;28;20242;-41
2023/01/18 01:31:12;;;;;;;10.33;7.07;;;;;;;3.31;53.37;96767.19;10444680;28;20262;-38
2023/01/18 01:36:18;;;;;;;8.10;5.87;;;;;;;3.55;52.86;96764.84;10445383;28;20680;-43
2023/01/18 01:41:26;;;;;;;9.47;6.00;;;;;;;2.05;55.04;96866.69;10445342;28;20315;-42
2023/01/18 01:46:36;;;;;;;8.57;6.43;;;;;;;2.77;54.20;96839.69;10441928;28;20330;-42
2023/01/18 01:51:41;;;;;;;9.00;6.60;;;;;;;2.65;53.92;96826.28;10439177;28;20355;-43
2023/01/18 01:56:47;;;;;;;11.23;7.60;;;;;;;1.40;56.19;96897.91;10441222;28;20243;-40
2023/01/18 02:01:49;;;;;;;11.77;7.03;;;;;;;1.98;55.77;96871.97;10442975;28;20722;-43
2023/01/18 02:06:50;;;;;;;12.67;8.13;;;;;;;1.87;56.42;96877.00;10439064;28;20234;-42
2023/01/18 02:11:54;;;;;;;10.87;7.50;;;;;;;1.77;56.55;96877.38;10441993;28;20546;-41
2023/01/18 02:17:06;;;;;;;10.60;7.53;;;;;;;2.29;55.88;96849.47;10442134;28;20250;-42
2023/01/18 02:22:15;;;;;;;11.77;8.33;;;;;;;3.07;54.19;96800.41;10442728;28;20243;-42
2023/01/18 02:27:30;;;;;;;12.67;8.03;;;;;;;1.34;58.16;96917.16;10441863;28;20238;-41
2023/01/18 02:32:38;;;;;;;13.27;8.50;;;;;;;1.05;57.97;96932.13;10442126;28;20714;-42
2023/01/18 02:37:42;;;;;;;16.40;9.10;;;;;;;1.58;57.75;96892.94;10440694;28;20265;-41
2023/01/18 02:48:07;;;;;;;17.60;9.53;;;;;;;2.56;55.04;96861.84;10439291;28;20243;-42
2023/01/18 02:53:13;;;;;;;13.63;9.73;;;;;;;2.74;53.98;96899.00;10421090;28;20563;-42
2023/01/18 02:58:30;;;;;;;12.80;9.30;;;;;;;2.46;55.13;96936.16;10440411;28;20266;-43
2023/01/18 03:03:33;;;;;;;13.37;9.57;;;;;;;3.55;52.60;96889.09;10480671;28;20283;-42
2023/01/18 03:08:46;;;;;;;13.20;9.87;;;;;;;3.09;53.30;96911.97;10477353;28;20319;-42
2023/01/18 03:13:58;;;;;;;17.00;10.33;;;;;;;1.48;56.25;97021.63;10479024;28;20256;-42
2023/01/18 03:24:50;;;;;;;16.63;11.13;;;;;;;3.00;54.43;96924.59;10433806;28;20707;-42
2023/01/18 03:35:17;;;;;;;18.43;10.57;;;;;;;1.95;56.16;96975.22;10435702;28;20240;-40
2023/01/18 03:40:23;;;;;;;16.00;11.13;;;;;;;1.32;57.58;97025.38;10435587;28;20242;-41
2023/01/18 03:45:36;;;;;;;17.17;10.67;;;;;;;1.85;56.12;96997.69;10436516;28;20234;-43
2023/01/18 03:50:59;;;;;;;16.57;11.57;;;;;;;2.69;54.19;96944.50;10443668;28;20716;-42
2023/01/18 03:56:17;;;;;;;13.67;10.03;;;;;;;1.96;56.44;97023.50;10448232;28;20237;-40
2023/01/18 04:01:19;;;;;;;14.63;10.17;;;;;;;0.56;58.29;97085.63;10443774;28;20244;-42
2023/01/18 04:06:22;;;;;;;12.13;9.00;;;;;;;1.35;57.11;97040.78;10454665;28;20266;-42
2023/01/18 04:11:23;;;;;;;13.57;9.80;;;;;;;0.95;57.83;97058.91;10450129;28;20254;-42
2023/01/18 04:16:25;;;;;;;17.70;9.90;;;;;;;1.19;58.21;97065.56;10454698;28;20235;-42
2023/01/18 04:21:27;;;;;;;14.43;9.30;;;;;;;2.25;56.48;97003.09;10448042;28;20319;-43
2023/01/18 04:26:28;;;;;;;14.77;9.37;;;;;;;1.14;57.61;97067.97;10442989;28;20233;-41
2023/01/18 04:31:31;;;;;;;13.63;8.60;;;;;;;0.50;58.50;97121.41;10442788;28;20233;-42
2023/01/18 04:36:33;;;;;;;12.70;9.30;;;;;;;0.48;57.64;97100.53;10442454;28;20236;-42
2023/01/18 04:41:35;;;;;;;13.90;9.13;;;;;;;0.98;57.34;97099.81;10435984;28;20245;-43
2023/01/18 04:46:39;;;;;;;11.27;8.93;;;;;;;0.98;58.16;97121.72;10441039;28;20768;-42
2023/01/18 04:51:42;;;;;;;12.00;8.80;;;;;;;0.93;57.36;97124.09;10449567;28;20323;-40
2023/01/18 04:56:44;;;;;;;11.47;7.83;;;;;;;1.07;56.50;97114.50;10483964;28;20593;-42
2023/01/18 05:01:46;;;;;;;12.37;8.20;;;;;;;1.04;56.91;97157.03;10478541;28;20529;-42
2023/01/18 05:06:48;;;;;;;12.53;8.60;;;;;;;3.03;53.23;97050.22;10475078;28;20335;-43
2023/01/18 05:11:50;;;;;;;10.10;7.43;;;;;;;1.74;54.54;97126.44;10478383;28;20241;-43
2023/01/18 05:16:51;;;;;;;10.77;7.60;;;;;;;2.84;53.21;97092.22;10478327;28;20242;-43
2023/01/18 05:21:53;;;;;;;10.67;7.40;;;;;;;2.73;52.59;97113.91;10480255;28;20233;-43
2023/01/18 05:26:55;;;;;;;10.13;7.63;;;;;;;2.11;53.82;97179.00;10479826;28;20230;-40
2023/01/18 05:31:56;;;;;;;9.93;8.10;;;;;;;2.05;54.51;97201.72;10483841;28;20789;-42
2023/01/18 05:36:58;;;;;;;11.57;8.70;;;;;;;2.07;53.24;97247.19;10480680;28;20237;-42
2023/01/18 05:42:00;;;;;;;13.73;8.50;;;;;;;2.90;52.55;97220.84;10461478;28;20252;-42
2023/01/18 05:47:02;;;;;;;11.13;8.50;;;;;;;3.96;51.09;97189.53;10482825;28;20241;-42
2023/01/18 05:52:04;;;;;;;11.40;8.23;;;;;;;4.44;49.32;97207.81;10479184;28;20888;-41
2023/01/18 05:57:06;;;;;;;13.13;8.47;;;;;;;1.95;52.89;97314.66;10481239;28;20236;-43
2023/01/18 06:02:07;;;;;;;13.93;8.67;;;;;;;2.87;52.12;97295.22;10479987;28;20888;-42
2023/01/18 06:07:10;;;;;;;10.10;8.50;;;;;;;2.10;53.83;97349.69;10479208;28;20254;-43
2023/01/18 06:12:11;;;;;;;11.97;8.20;;;;;;;3.21;52.13;97274.25;10477936;28;20401;-42
2023/01/18 06:17:13;;;;;;;9.37;7.87;;;;;;;3.05;51.45;97312.41;10476947;28;20234;-42
2023/01/18 06:22:15;;;;;;;13.20;8.40;;;;;;;2.91;52.03;97335.31;10479862;28;20303;-42
2023/01/18 06:27:16;;;;;;;10.83;8.00;;;;;;;3.02;51.15;97339.22;10480126;28;20245;-42
2023/01/18 06:32:18;;;;;;;9.53;7.50;;;;;;;1.50;54.48;97432.63;10477493;28;20730;-42
2023/01/18 06:37:20;;;;;;;11.53;8.20;;;;;;;2.35;53.39;97387.06;10481658;28;20238;-43
2023/01/18 06:42:21;;;;;;;17.63;14.33;;;;;;;2.88;52.42;97362.06;10479016;28;20341;-42
2023/01/18 06:47:23;;;;;;;12.93;11.57;;;;;;;3.91;50.52;97327.72;10477676;28;20260;-41
2023/01/18 06:52:25;;;;;;;10.37;9.27;;;;;;;5.66;47.29;97368.91;10479831;28;20240;-42
2023/01/18 06:57:26;;;;;;;11.67;8.10;;;;;;;3.28;49.99;97455.66;10479169;28;20543;-43
2023/01/18 07:02:28;;;;;;;11.73;8.20;;;;;;;3.39;49.81;97462.22;10475277;28;20241;-43
2023/01/18 07:07:30;;;;;;;11.33;8.20;;;;;;;4.75;47.25;97427.00;10476609;28;20250;-42
2023/01/18 07:12:32;;;;;;;9.40;7.73;;;;;;;4.83;47.59;97444.53;10479637;28;20240;-41
2023/01/18 07:17:34;;;;;;;9.33;7.10;;;;;;;4.30;47.83;97474.38;10474362;28;20755;-43
2023/01/18 07:22:36;;;;;;;11.80;8.87;;;;;;;4.91;47.05;97462.06;10484404;28;20235;-43
2023/01/18 07:27:41;;;;;;;17.63;11.83;;;;;;;5.19;46.93;97485.69;10486446;28;20837;-43
2023/01/18 07:32:49;;;;;;;14.97;11.00;;;;;;;3.65;48.82;97551.47;10485092;28;20332;-43
2023/01/18 07:37:54;;;;;;;10.87;8.60;;;;;;;5.23;47.14;97516.06;10466181;22;20234;-61
2023/01/18 07:42:56;;;;;;;10.77;8.80;;;;;;;5.61;46.38;97504.03;10426120;28;20248;-60
2023/01/18 07:47:59;;;;;;;13.90;11.10;;;;;;;4.87;47.62;97532.41;10410829;28;20314;-61
2023/01/18 07:53:07;;;;;;;10.90;8.93;;;;;;;5.26;46.94;97544.84;10410100;28;20235;-61
2023/01/18 07:58:10;;;;;;;12.77;10.57;;;;;;;4.69;47.38;97570.88;10405898;28;20708;-62
2023/01/18 08:03:13;;;;;;;17.00;10.73;;;;;;;5.63;47.00;97569.13;10409338;28;20255;-61
2023/01/18 08:08:16;;;;;;;17.63;12.43;;;;;;;4.55;47.49;97599.16;10409359;28;21018;-61
2023/01/18 08:13:18;;;;;;;14.73;11.47;;;;;;;5.63;46.77;97584.25;10404938;28;20247;-61
2023/01/18 08:18:20;;;;;;;17.83;9.87;;;;;;;4.43;48.59;97650.28;10410934;28;20248;-61
2023/01/18 08:23:22;;;;;;;12.97;9.33;;;;;;;4.76;47.94;97621.25;10392141;28;20331;-61
2023/01/18 08:28:24;;;;;;;13.33;11.57;;;;;;;4.95;47.63;97620.47;10406278;28;20659;-61
2023/01/18 08:33:25;;;;;;;26.80;19.20;;;;;;;5.55;47.35;97626.88;10406038;28;20240;-61
2023/01/18 08:38:27;;;;;;;14.40;10.90;;;;;;;4.92;48.01;97670.44;10446066;28;20236;-60
2023/01/18 08:43:29;;;;;;;12.77;9.30;;;;;;;4.57;48.66;97696.97;10445754;28;20258;-61
2023/01/18 08:48:30;;;;;;;14.67;11.40;;;;;;;4.78;48.62;97682.81;10438439;28;20241;-61
2023/01/18 08:53:32;;;;;;;17.77;13.07;;;;;;;4.06;49.59;97707.88;10404622;28;20592;-62
2023/01/18 08:58:34;;;;;;;17.70;13.57;;;;;;;5.31;47.82;97671.53;10438274;28;20828;-60
2023/01/18 09:03:36;;;;;;;20.60;15.27;;;;;;;4.63;48.17;97701.50;10401951;28;20223;-61
2023/01/18 09:08:38;;;;;;;20.23;13.97;;;;;;;4.27;48.86;97706.97;10412604;28;20247;-61
2023/01/18 09:13:40;;;;;;;12.53;10.40;;;;;;;3.54;50.87;97762.78;10412287;28;20326;-61
2023/01/18 09:19:00;;;;;;;16.50;10.87;;;;;;;3.65;49.58;97722.59;10399311;28;20784;-61
2023/01/18 09:24:01;;;;;;;14.43;11.07;;;;;;;3.88;50.36;97740.09;10405019;28;20616;-61
2023/01/18 09:29:03;;;;;;;11.60;9.83;;;;;;;3.87;50.06;97719.91;10400984;28;20706;-63
2023/01/18 09:34:05;;;;;;;14.40;9.70;;;;;;;3.87;49.19;97731.34;10403633;28;20745;-62
2023/01/18 09:39:21;;;;;;;12.23;9.77;;;;;;;4.37;48.82;97718.06;10402789;28;20656;-61
2023/01/18 09:44:32;;;;;;;13.43;10.13;;;;;;;5.54;47.29;97708.31;10403299;28;20258;-61
2023/01/18 09:49:53;;;;;;;13.00;11.70;;;;;;;4.90;48.06;97754.63;10440350;28;20250;-62
2023/01/18 09:55:07;;;;;;;12.57;10.30;;;;;;;5.32;47.00;97755.41;10439061;28;20259;-61
2023/01/18 10:00:20;;;;;;;13.03;10.27;;;;;;;4.77;47.63;97801.22;10438164;28;20239;-62
2023/01/18 10:05:28;;;;;;;10.60;8.60;;;;;;;5.00;47.54;97797.50;10431737;28;20775;-62
2023/01/18 10:10:37;;;;;;;9.80;6.70;;;;;;;5.00;47.16;97776.28;10418772;28;20246;-61
2023/01/18 10:15:40;;;;;;;9.43;7.07;;;;;;;3.70;48.46;97833.13;10437648;28;20541;-60
2023/01/18 10:20:49;;;;;;;8.10;7.00;;;;;;;4.19;48.33;97829.75;10435198;28;20247;-60
2023/01/18 10:25:55;;;;;;;9.73;5.93;;;;;;;2.48;50.90;97845.72;10436333;28;20603;-62
2023/01/18 10:31:14;;;;;;;5.80;5.20;;;;;;;4.01;48.62;97830.19;10435878;28;20359;-61
2023/01/18 10:36:21;;;;;;;8.20;5.50;;;;;;;4.82;47.27;97794.53;10438155;28;20239;-61
2023/01/18 10:41:30;;;;;;;7.50;6.00;;;;;;;5.67;46.36;97795.94;10435571;28;20250;-62
2023/01/18 10:46:32;;;;;;;10.37;7.10;;;;;;;4.81;46.77;97844.09;10439700;28;20265;-62
2023/01/18 10:51:36;;;;;;;7.17;5.00;;;;;;;4.64;47.60;97862.09;10439559;28;20228;-61
2023/01/18 10:56:38;;;;;;;5.77;5.10;;;;;;;4.10;47.54;97849.41;10436812;28;20242;-62
2023/01/18 11:06:21;;;;;;;5.20;4.53;;;;;;;0.59;56.34;97832.75;10531460;27;20781;-63
2023/01/18 11:12:32;;;;;;;7.17;4.77;;;;;;;1.76;54.58;97780.22;10447552;28;20583;-62
2023/01/18 11:17:17;;;;;;;6.10;4.60;;;;;;;0.14;56.16;97927.03;10428895;28;20762;-62
2023/01/18 11:22:26;;;;;;;5.77;4.67;;;;;;;0.24;56.37;97905.81;10422300;28;20253;-63
2023/01/18 11:27:31;;;;;;;5.63;4.13;;;;;;;0.41;54.46;97875.91;10431253;28;20261;-62
2023/01/18 11:32:32;;;;;;;4.53;4.07;;;;;;;0.19;55.28;97882.63;10431529;28;20250;-63
2023/01/18 11:37:42;;;;;;;4.73;4.20;;;;;;;1.37;54.33;97791.66;10425584;28;20268;-63
2023/01/18 11:42:44;;;;;;;4.77;4.27;;;;;;;0.43;53.99;97873.91;10464921;28;20228;-63
2023/01/18 11:48:05;;;;;;;4.17;3.77;;;;;;;0.49;52.99;97862.72;10471887;28;20243;-61
2023/01/18 11:53:44;;;;;;;7.03;4.50;;;;;;;2.21;50.74;97738.13;10471665;28;20233;-62
2023/01/18 11:58:48;;;;;;;5.13;3.73;;;;;;;2.39;50.41;97790.56;10466758;28;20251;-63
2023/01/18 12:04:05;;;;;;;4.93;4.03;;;;;;;-0.14;52.29;97953.56;10468257;28;20250;-62
2023/01/18 12:09:16;;;;;;;4.53;3.93;;;;;;;2.85;48.99;97735.72;10470877;28;20270;-61
2023/01/18 12:14:32;;;;;;;3.73;3.40;;;;;;;0.22;51.71;97937.53;10461819;28;20242;-63
2023/01/18 12:19:34;;;;;;;4.77;3.50;;;;;;;2.52;49.00;97775.75;10442900;28;20246;-62
2023/01/18 12:24:44;;;;;;;5.47;4.10;;;;;;;2.26;47.77;97831.56;10444190;28;20238;-63
2023/01/18 12:29:59;;;;;;;4.93;3.60;;;;;;;0.87;49.66;97957.78;10438097;28;20231;-63
2023/01/18 12:35:13;;;;;;;6.83;3.63;;;;;;;2.16;48.74;97866.16;10435153;28;20779;-63
2023/01/18 12:40:33;;;;;;;5.00;4.30;;;;;;;3.01;46.80;97897.78;10437188;28;20231;-62
2023/01/18 12:45:45;;;;;;;5.47;4.13;;;;;;;1.67;48.83;97952.66;10435528;28;20240;-63
2023/01/18 12:50:48;;;;;;;4.53;3.93;;;;;;;2.28;47.97;97907.94;10436110;28;20255;-63
2023/01/18 12:55:53;;;;;;;4.17;3.23;;;;;;;2.33;46.20;97921.44;10442892;28;20227;-62
2023/01/18 13:01:03;;;;;;;3.90;3.30;;;;;;;3.26;46.26;97858.63;10439383;28;20242;-63
2023/01/18 13:06:05;;;;;;;5.50;4.27;;;;;;;3.18;46.74;97904.50;10441122;28;20305;-62
2023/01/18 13:11:16;;;;;;;5.87;4.20;;;;;;;2.33;45.99;97961.88;10438918;28;20224;-62
2023/01/18 13:16:59;;;;;;;4.00;3.60;;;;;;;2.34;46.66;98010.19;10443834;28;20238;-62
2023/01/18 13:22:09;;;;;;;4.97;3.60;;;;;;;3.44;44.92;97913.78;10438252;28;20248;-62
2023/01/18 13:27:14;;;;;;;5.33;3.40;;;;;;;3.10;45.11;97946.88;10436678;28;20232;-61
2023/01/18 13:32:36;;;;;;;6.43;4.20;;;;;;;2.14;44.94;98015.91;10438641;28;20315;-61
2023/01/18 13:37:50;;;;;;;4.37;3.97;;;;;;;1.39;45.86;98088.34;10436615;28;20687;-63
2023/01/18 13:42:55;;;;;;;7.77;4.43;;;;;;;2.91;45.32;97967.53;10432171;28;20571;-62
2023/01/18 13:48:35;;;;;;;6.10;4.20;;;;;;;2.64;44.82;98010.34;10439296;28;21015;-63
2023/01/18 13:53:49;;;;;;;4.83;4.37;;;;;;;2.52;45.40;98058.28;10437333;28;20718;-62
2023/01/18 13:59:16;;;;;;;7.23;4.60;;;;;;;1.77;45.28;98114.97;10436986;28;20304;-62
2023/01/18 14:04:29;;;;;;;5.30;4.23;;;;;;;2.72;45.92;98077.13;10434301;28;20231;-61
2023/01/18 14:09:42;;;;;;;5.47;4.00;;;;;;;2.81;44.13;98066.53;10436760;28;20227;-62
2023/01/18 14:14:56;;;;;;;5.83;4.00;;;;;;;2.38;44.30;98130.28;10437080;28;20854;-62
2023/01/18 14:20:06;;;;;;;6.23;4.50;;;;;;;3.45;44.00;98039.75;10437327;28;20240;-61
2023/01/18 14:25:23;;;;;;;8.57;5.17;;;;;;;3.05;43.86;98089.31;10436518;28;20231;-62
2023/01/18 14:30:32;;;;;;;7.03;4.77;;;;;;;2.91;44.20;98114.69;10434332;28;20242;-62
2023/01/18 14:35:34;;;;;;;5.90;5.20;;;;;;;3.15;43.53;98104.94;10435975;28;20242;-62
2023/01/18 14:40:36;;;;;;;7.10;5.43;;;;;;;3.95;43.96;98074.41;10436732;28;20767;-62
2023/01/18 14:45:39;;;;;;;7.27;5.40;;;;;;;4.11;43.54;98087.47;10430715;28;20236;-62
2023/01/18 14:50:46;;;;;;;7.70;5.53;;;;;;;3.78;44.15;98122.25;10433427;28;20240;-61
2023/01/18 14:56:21;;;;;;;8.17;6.20;;;;;;;4.18;43.40;98091.00;10427605;28;20713;-64
2023/01/18 15:01:36;;;;;;;9.00;6.17;;;;;;;3.51;44.12;98155.38;10399878;28;20228;-61
2023/01/18 15:06:44;;;;;;;7.23;6.53;;;;;;;4.07;44.05;98141.78;10472914;28;20238;-62
2023/01/18 15:11:48;;;;;;;10.67;7.63;;;;;;;3.37;44.01;98186.06;10449395;28;20227;-62
2023/01/18 15:16:54;;;;;;;9.33;6.87;;;;;;;4.12;43.90;98160.59;10468400;28;20316;-62
2023/01/18 15:21:59;;;;;;;11.57;6.43;;;;;;;3.69;43.67;98184.16;10470778;28;20227;-61
2023/01/18 15:27:02;;;;;;;9.10;6.90;;;;;;;3.79;44.00;98197.94;10480345;28;20259;-62
2023/01/18 15:32:10;;;;;;;8.70;6.00;;;;;;;3.67;43.58;98201.22;10489864;28;20236;-61
2023/01/18 15:37:22;;;;;;;10.97;7.37;;;;;;;3.67;43.25;98225.03;10485460;28;20246;-62
2023/01/18 15:42:32;;;;;;;10.90;7.33;;;;;;;3.26;43.88;98234.03;10479818;28;20232;-62
2023/01/18 15:47:37;;;;;;;14.30;9.97;;;;;;;4.74;42.93;98180.59;10488564;28;20243;-62
2023/01/18 15:52:48;;;;;;;9.07;6.60;;;;;;;3.16;43.49;98259.88;10476523;28;20241;-62
2023/01/18 15:57:53;;;;;;;11.33;7.80;;;;;;;3.12;45.31;98288.50;10490135;28;20231;-62
2023/01/18 16:02:55;;;;;;;11.67;7.43;;;;;;;1.70;45.30;98345.25;10481988;28;20230;-63
2023/01/18 16:08:19;;;;;;;9.43;7.27;;;;;;;1.80;45.36;98333.56;10498339;28;20326;-62
2023/01/18 16:13:24;;;;;;;21.40;13.50;;;;;;;1.45;46.22;98353.09;10492837;28;20717;-61
2023/01/18 16:18:26;;;;;;;20.70;12.07;;;;;;;2.81;45.44;98257.53;10491001;28;20230;-62
2023/01/18 16:23:28;;;;;;;11.50;8.37;;;;;;;4.19;43.37;98195.91;10494334;28;20235;-63
2023/01/18 16:28:30;;;;;;;13.67;9.63;;;;;;;3.02;45.29;98287.88;10504567;28;20234;-62
2023/01/18 16:33:31;;;;;;;37.53;20.73;;;;;;;3.43;44.59;98255.94;10492044;28;20783;-68
2023/01/18 16:38:34;;;;;;;23.90;14.77;;;;;;;3.10;45.17;98298.41;10488388;28;20238;-68
2023/01/18 16:43:36;;;;;;;12.33;9.50;;;;;;;1.54;46.89;98388.22;10484150;28;20735;-63
2023/01/18 16:48:37;;;;;;;11.97;8.97;;;;;;;1.67;46.78;98353.50;10492444;28;20262;-63
2023/01/18 16:53:39;;;;;;;10.80;7.43;;;;;;;1.56;46.67;98359.91;10483109;28;20212;-62
2023/01/18 16:58:42;;;;;;;12.17;7.97;;;;;;;2.46;45.29;98309.81;10477236;28;20235;-62
2023/01/18 17:03:44;;;;;;;12.03;10.07;;;;;;;3.70;44.65;98277.56;10477652;28;20284;-62
2023/01/18 17:08:47;;;;;;;19.63;13.10;;;;;;;3.07;45.03;98335.75;10476238;28;20226;-64
2023/01/18 17:13:49;;;;;;;19.73;12.73;;;;;;;3.00;45.58;98340.09;10457694;28;20215;-65
2023/01/18 17:18:51;;;;;;;13.77;10.20;;;;;;;2.41;45.26;98382.59;10470870;28;20659;-64
2023/01/18 17:23:52;;;;;;;23.13;17.03;;;;;;;3.49;44.92;98309.97;10487512;28;20639;-63
2023/01/18 17:28:54;;;;;;;19.10;12.40;;;;;;;2.88;45.62;98376.59;10487259;28;20234;-63
2023/01/18 17:33:57;;;;;;;14.90;10.70;;;;;;;3.52;43.84;98338.72;10489217;28;20230;-64
2023/01/18 17:38:58;;;;;;;13.83;10.33;;;;;;;3.81;44.15;98356.53;10483687;28;20249;-62
2023/01/18 17:44:01;;;;;;;18.03;11.43;;;;;;;2.41;44.73;98441.50;10483279;28;20755;-62
2023/01/18 17:49:03;;;;;;;21.40;15.27;;;;;;;2.51;44.96;98426.31;10485514;28;20237;-63
2023/01/18 17:54:04;;;;;;;16.70;11.43;;;;;;;2.70;44.83;98411.13;10486099;28;20596;-62
2023/01/18 17:59:20;;;;;;;14.20;11.53;;;;;;;2.04;46.04;98487.63;10486924;28;20252;-63
2023/01/18 18:04:22;;;;;;;18.07;11.53;;;;;;;1.18;46.80;98533.31;10486787;28;20246;-62
2023/01/18 18:09:24;;;;;;;19.57;13.37;;;;;;;1.73;46.54;98492.66;10487623;28;20248;-63
2023/01/18 18:14:26;;;;;;;17.43;11.53;;;;;;;1.97;46.37;98487.44;10485370;28;20612;-63
2023/01/18 18:19:28;;;;;;;11.30;9.00;;;;;;;1.68;47.40;98505.47;10485222;28;20233;-62
2023/01/18 18:24:29;;;;;;;9.90;7.77;;;;;;;1.71;46.76;98494.59;10483408;28;20241;-62
2023/01/18 18:29:31;;;;;;;10.60;7.73;;;;;;;2.54;45.27;98433.91;10488450;28;20234;-63
2023/01/18 18:34:34;;;;;;;12.60;9.40;;;;;;;1.91;46.57;98511.00;10487957;28;20238;-62
2023/01/18 18:39:35;;;;;;;10.87;8.70;;;;;;;1.42;47.08;98530.91;10482216;28;20260;-63
2023/01/18 18:44:37;;;;;;;13.47;10.83;;;;;;;1.45;47.63;98531.56;10478060;28;20238;-62
2023/01/18 18:49:39;;;;;;;14.43;10.73;;;;;;;1.39;47.14;98523.28;10490651;28;20416;-63
2023/01/18 18:54:41;;;;;;;11.17;9.63;;;;;;;1.48;47.35;98518.88;10480251;28;20241;-63
2023/01/18 18:59:43;;;;;;;11.73;9.23;;;;;;;1.88;47.12;98506.06;10480021;28;20621;-63
2023/01/18 19:04:44;;;;;;;13.23;9.20;;;;;;;1.64;47.79;98527.84;10483599;28;20238;-62
2023/01/18 19:09:46;;;;;;;11.90;9.23;;;;;;;2.04;47.01;98492.91;10480225;28;20252;-62
2023/01/18 19:14:48;;;;;;;14.37;11.33;;;;;;;2.21;47.34;98485.03;10479955;28;20237;-63
2023/01/18 19:19:49;;;;;;;17.33;11.23;;;;;;;1.98;46.98;98504.13;10477915;28;20239;-63
2023/01/18 19:24:51;;;;;;;23.60;13.37;;;;;;;1.92;47.44;98526.66;10476505;28;20305;-62
2023/01/18 19:29:54;;;;;;;22.50;12.40;;;;;;;2.62;46.73;98474.50;10492366;28;20240;-61
2023/01/18 19:34:55;;;;;;;15.97;10.80;;;;;;;2.87;46.13;98457.69;10482743;28;20275;-63
2023/01/18 19:39:57;;;;;;;14.40;8.50;;;;;;;1.33;47.74;98542.34;10493874;28;20233;-63
2023/01/18 19:44:59;;;;;;;10.63;6.83;;;;;;;1.78;47.67;98506.19;10483924;28;20229;-73
2023/01/18 19:50:03;;;;;;;13.63;8.53;;;;;;;1.37;48.41;98554.25;10475355;28;20258;-62
2023/01/18 19:55:05;;;;;;;11.90;7.53;;;;;;;2.02;47.20;98505.44;10469863;28;20233;-64
2023/01/18 20:00:08;;;;;;;10.07;8.43;;;;;;;1.06;48.52;98598.63;10479459;28;20275;-64
2023/01/18 20:05:10;;;;;;;12.43;7.90;;;;;;;0.36;49.75;98648.41;10482251;28;20249;-63
2023/01/18 20:10:12;;;;;;;8.53;6.63;;;;;;;-1.41;53.10;98726.53;10469195;28;20745;-63
2023/01/18 20:15:16;;;;;;;14.37;8.73;;;;;;;-0.32;52.12;98576.69;10486446;28;20236;-62
2023/01/18 20:20:18;;;;;;;14.53;10.33;;;;;;;-0.16;50.29;98560.31;10466219;28;20234;-69
2023/01/18 20:25:32;;;;;;;13.83;9.73;;;;;;;0.63;50.89;98502.75;10460561;28;20791;-62
2023/01/18 20:30:34;;;;;;;11.97;10.53;;;;;;;-1.20;53.95;98712.50;10468979;28;20238;-63
2023/01/18 20:35:36;;;;;;;15.47;11.70;;;;;;;0.64;50.93;98497.34;10454654;28;20712;-64
2023/01/18 20:40:38;;;;;;;14.50;11.73;;;;;;;-0.47;52.08;98605.25;10477162;28;20241;-64
2023/01/18 20:45:40;;;;;;;17.37;13.07;;;;;;;-1.26;53.98;98687.63;10476314;28;20246;-68
2023/01/18 20:50:41;;;;;;;17.57;13.00;;;;;;;0.78;51.45;98517.06;10484459;28;20240;-64
2023/01/18 20:55:43;;;;;;;17.80;13.73;;;;;;;1.71;49.47;98457.66;10486254;28;20241;-66
2023/01/18 21:00:46;;;;;;;17.07;13.47;;;;;;;0.57;51.29;98570.00;10485917;28;20260;-63
2023/01/18 21:05:48;;;;;;;17.60;14.13;;;;;;;1.96;49.42;98458.56;10480800;28;20252;-64
2023/01/18 21:10:50;;;;;;;15.90;13.17;;;;;;;-0.81;53.36;98683.66;10482218;28;20236;-64
2023/01/18 21:15:57;;;;;;;17.13;13.40;;;;;;;1.35;50.00;98506.13;10477151;28;20233;-63
2023/01/18 21:20:59;;;;;;;19.90;14.33;;;;;;;0.40;52.15;98592.72;10483982;28;20223;-65
2023/01/18 21:26:01;;;;;;;18.30;13.93;;;;;;;1.75;49.00;98478.28;10484023;28;20231;-67
2023/01/18 21:31:03;;;;;;;17.13;12.60;;;;;;;-1.22;56.09;98689.00;10482683;28;20237;-65
2023/01/18 21:36:07;;;;;;;16.20;12.67;;;;;;;-1.84;56.64;98709.22;10485745;28;20233;-65
2023/01/18 21:46:30;;;;;;;19.30;14.23;;;;;;;-0.43;54.87;98529.56;10477625;28;20236;-63
2023/01/18 21:56:53;;;;;;;17.37;12.17;;;;;;;-0.75;55.58;98561.44;10489612;28;20631;-62
2023/01/18 22:01:55;;;;;;;17.37;13.00;;;;;;;0.20;54.90;98449.91;10474633;28;20326;-62
2023/01/18 22:06:58;;;;;;;16.67;12.60;;;;;;;0.35;53.71;98454.66;10462486;28;20235;-62
2023/01/18 22:11:59;;;;;;;17.10;11.43;;;;;;;-0.49;53.54;98601.91;10473920;28;20791;-62
2023/01/18 22:17:01;;;;;;;16.90;11.50;;;;;;;-0.72;55.04;98632.91;10478734;28;20242;-61
2023/01/18 22:22:03;;;;;;;14.20;12.20;;;;;;;-0.53;55.20;98611.06;10485456;28;20266;-61
2023/01/18 22:27:06;;;;;;;16.27;11.63;;;;;;;-1.49;55.47;98723.72;10480899;28;20236;-62
2023/01/18 22:32:08;;;;;;;14.60;11.67;;;;;;;-1.02;55.08;98684.59;10477521;28;20257;-62
2023/01/18 22:37:09;;;;;;;13.87;11.67;;;;;;;0.76;53.09;98497.13;10485647;28;20227;-62
2023/01/18 22:42:11;;;;;;;17.33;11.77;;;;;;;0.14;53.80;98553.13;10479671;28;20809;-62
2023/01/18 22:47:13;;;;;;;12.80;9.60;;;;;;;-0.60;54.37;98649.38;10471325;28;20740;-62
2023/01/18 22:52:14;;;;;;;16.30;11.67;;;;;;;0.92;51.59;98501.69;10479025;28;20259;-61
2023/01/18 22:57:16;;;;;;;17.27;12.93;;;;;;;0.21;53.76;98567.34;10489426;28;20237;-62
2023/01/18 23:02:18;;;;;;;13.23;10.97;;;;;;;-0.02;54.32;98587.13;10470838;28;20224;-62
2023/01/18 23:07:19;;;;;;;15.97;11.93;;;;;;;-1.58;56.72;98725.34;10481342;28;20232;-62
2023/01/18 23:12:21;;;;;;;18.20;10.80;;;;;;;-1.77;57.64;98720.88;10480445;28;20227;-62
2023/01/18 23:17:38;;;;;;;15.50;12.13;;;;;;;-0.08;55.14;98534.13;10480278;28;20228;-61
2023/01/18 23:22:40;;;;;;;14.33;9.83;;;;;;;-1.14;57.08;98667.31;10478872;28;20239;-61
2023/01/18 23:27:42;;;;;;;11.70;10.37;;;;;;;-1.25;56.98;98656.94;10487589;28;20247;-61
2023/01/18 23:32:43;;;;;;;12.90;11.17;;;;;;;-0.60;55.90;98609.94;10481377;28;20223;-62
2023/01/18 23:37:45;;;;;;;16.73;13.23;;;;;;;-0.36;55.05;98566.63;10479965;28;20226;-62
2023/01/18 23:59:08;;;;;;;17.93;10.27;;;;;;;-0.17;54.93;98563.91;10481440;28;20326;-62
